createdAt,value
2023-03-23T15:58:57.845Z,12.02
2023-03-23T16:01:26.455Z,7.53
2023-03-23T16:03:53.454Z,4.13
2023-03-23T16:06:25.324Z,3.67
2023-03-23T16:08:55.149Z,4.28
2023-03-23T16:11:22.515Z,4.95
2023-03-23T16:13:49.297Z,4.05
2023-03-23T16:16:24.328Z,5.00
2023-03-23T16:18:51.100Z,4.88
2023-03-23T16:21:17.967Z,3.40
2023-03-23T16:23:46.493Z,10.02
2023-03-23T16:26:14.573Z,5.78
2023-03-23T16:28:41.910Z,9.35
2023-03-23T16:31:08.789Z,11.07
2023-03-23T16:33:35.621Z,14.15
2023-03-23T16:36:02.964Z,16.90
2023-03-23T16:38:29.774Z,6.55
2023-03-23T16:40:56.505Z,14.63
2023-03-23T16:43:23.297Z,9.63
2023-03-23T16:45:50.491Z,18.58
2023-03-23T16:48:17.342Z,20.35
2023-03-23T16:50:44.581Z,21.02
2023-03-23T16:53:11.802Z,24.63
2023-03-23T16:55:39.014Z,25.65
2023-03-23T16:58:16.492Z,19.20
2023-03-23T17:00:45.014Z,21.83
2023-03-23T17:03:13.302Z,11.63
2023-03-23T17:05:40.851Z,15.93
2023-03-23T17:08:07.790Z,15.10
2023-03-23T17:10:34.591Z,13.63
2023-03-23T17:13:01.824Z,14.27
2023-03-23T17:15:28.678Z,14.25
2023-03-23T17:17:55.575Z,20.25
2023-03-23T17:20:22.673Z,23.08
2023-03-23T17:22:49.491Z,15.48
2023-03-23T17:25:16.461Z,20.77
2023-03-23T17:27:43.309Z,27.73
2023-03-23T17:30:10.919Z,45.72
2023-03-23T17:32:37.883Z,40.50
2023-03-23T17:35:05.540Z,36.55
2023-03-23T17:37:32.642Z,16.48
2023-03-23T17:39:59.425Z,16.33
2023-03-23T17:42:26.993Z,16.63
2023-03-23T17:44:53.953Z,18.25
2023-03-23T17:47:21.002Z,15.18
2023-03-23T17:49:48.098Z,15.77
2023-03-23T17:52:15.025Z,14.98
2023-03-23T17:54:42.073Z,17.65
2023-03-23T17:57:09.154Z,25.15
2023-03-23T17:59:36.360Z,16.77
2023-03-23T18:02:03.492Z,15.88
2023-03-23T18:04:30.675Z,15.63
2023-03-23T18:06:57.846Z,14.43
2023-03-23T18:09:25.248Z,15.63
2023-03-23T18:11:52.162Z,21.23
2023-03-23T18:14:19.108Z,22.75
2023-03-23T18:16:46.239Z,19.10
2023-03-23T18:19:13.101Z,20.13
2023-03-23T18:21:39.904Z,27.88
2023-03-23T18:24:07.956Z,19.05
2023-03-23T18:26:34.853Z,16.20
2023-03-23T18:29:01.726Z,14.48
2023-03-23T18:31:28.865Z,13.60
2023-03-23T18:33:55.785Z,14.88
2023-03-23T18:36:24.980Z,15.00
2023-03-23T18:38:53.931Z,15.23
2023-03-23T18:41:20.880Z,13.48
2023-03-23T18:43:47.905Z,20.13
2023-03-23T18:46:14.879Z,17.58
2023-03-23T18:48:41.708Z,18.65
2023-03-23T18:51:09.547Z,23.60
2023-03-23T18:53:36.310Z,18.23
2023-03-23T18:56:13.920Z,17.02
2023-03-23T18:58:41.009Z,17.45
2023-03-23T19:01:10.456Z,14.00
2023-03-23T19:03:37.731Z,13.48
2023-03-23T19:06:04.900Z,13.93
2023-03-23T19:08:31.855Z,14.70
2023-03-23T19:11:01.005Z,15.00
2023-03-23T19:13:31.566Z,15.88
2023-03-23T19:15:58.466Z,18.25
2023-03-23T19:18:25.698Z,14.75
2023-03-23T19:21:13.727Z,16.77
2023-03-23T19:23:41.460Z,19.30
2023-03-23T19:26:08.403Z,15.02
2023-03-23T19:31:05.548Z,16.27
2023-03-23T19:33:32.335Z,16.02
2023-03-23T19:36:09.087Z,16.83
2023-03-23T19:38:38.394Z,22.60
2023-03-23T19:41:06.392Z,30.25
2023-03-23T19:43:33.785Z,18.58
2023-03-23T19:46:00.833Z,18.95
2023-03-23T19:48:28.792Z,24.75
2023-03-23T19:50:56.319Z,20.63
2023-03-23T19:53:23.542Z,26.10
2023-03-23T19:55:50.499Z,27.10
2023-03-23T19:58:17.539Z,17.00
2023-03-23T20:00:45.259Z,17.00
2023-03-23T20:03:12.655Z,15.57
2023-03-23T20:05:40.729Z,16.35
2023-03-23T20:08:09.120Z,17.27
2023-03-23T20:10:36.386Z,19.02
2023-03-23T20:13:04.378Z,20.27
2023-03-23T20:15:32.027Z,22.73
2023-03-23T20:17:59.198Z,20.20
2023-03-23T20:20:26.509Z,25.50
2023-03-23T20:22:54.511Z,16.58
2023-03-23T20:25:23.426Z,16.60
2023-03-23T20:27:50.645Z,13.20
2023-03-23T20:30:18.793Z,12.65
2023-03-23T20:32:46.604Z,11.07
2023-03-23T20:35:14.848Z,11.65
2023-03-23T20:37:42.139Z,11.32
2023-03-23T20:40:11.668Z,11.00
2023-03-23T20:42:38.887Z,12.20
2023-03-23T20:45:06.306Z,12.48
2023-03-23T20:47:33.201Z,12.80
2023-03-23T20:50:00.210Z,16.02
2023-03-23T20:52:27.049Z,13.55
2023-03-23T20:54:54.886Z,11.55
2023-03-23T20:57:22.465Z,13.15
2023-03-23T20:59:50.809Z,13.27
2023-03-23T21:02:18.319Z,12.35
2023-03-23T21:04:45.283Z,12.68
2023-03-23T21:07:13.142Z,11.25
2023-03-23T21:09:41.046Z,10.10
2023-03-23T21:12:09.273Z,10.35
2023-03-23T21:14:37.278Z,10.98
2023-03-23T21:17:04.855Z,10.63
2023-03-23T21:19:32.540Z,11.30
2023-03-23T21:21:59.815Z,19.23
2023-03-23T21:24:28.384Z,17.83
2023-03-23T21:26:56.756Z,14.98
2023-03-23T21:29:24.412Z,16.00
2023-03-23T21:31:57.780Z,15.23
2023-03-23T21:34:32.033Z,13.15
2023-03-23T21:36:58.991Z,12.10
2023-03-23T21:39:26.342Z,9.77
2023-03-23T21:41:53.175Z,9.55
2023-03-23T21:44:20.144Z,9.35
2023-03-23T21:46:46.944Z,9.35
2023-03-23T21:49:14.404Z,9.82
2023-03-23T21:51:41.714Z,13.23
2023-03-23T21:54:09.206Z,13.38
2023-03-23T21:56:36.843Z,12.70
2023-03-23T21:59:04.707Z,9.82
2023-03-23T22:01:31.656Z,9.63
2023-03-23T22:03:58.639Z,9.50
2023-03-23T22:06:28.559Z,9.85
2023-03-23T22:08:55.974Z,10.07
2023-03-23T22:11:27.072Z,9.57
2023-03-23T22:13:54.689Z,11.77
2023-03-23T22:16:21.847Z,10.32
2023-03-23T22:18:49.408Z,9.48
2023-03-23T22:21:16.814Z,8.50
2023-03-23T22:23:44.352Z,8.75
2023-03-23T22:26:12.115Z,8.70
2023-03-23T22:28:39.192Z,8.63
2023-03-23T22:31:18.651Z,8.40
2023-03-23T22:33:46.156Z,7.40
2023-03-23T22:36:13.152Z,7.85
2023-03-23T22:38:41.530Z,8.30
2023-03-23T22:41:08.725Z,6.78
2023-03-23T22:43:36.055Z,6.93
2023-03-23T22:46:03.736Z,7.65
2023-03-23T22:48:30.973Z,7.50
2023-03-23T22:50:58.495Z,7.07
2023-03-23T22:53:25.957Z,7.60
2023-03-23T22:55:54.535Z,5.93
2023-03-23T22:58:21.367Z,6.15
2023-03-23T23:00:49.645Z,7.47
2023-03-23T23:03:16.755Z,6.45
2023-03-23T23:05:45.191Z,6.28
2023-03-23T23:08:13.515Z,7.15
2023-03-23T23:10:42.211Z,6.32
2023-03-23T23:13:09.351Z,6.25
2023-03-23T23:15:36.858Z,6.72
2023-03-23T23:18:04.958Z,6.75
2023-03-23T23:20:33.286Z,6.82
2023-03-23T23:23:01.312Z,6.90
2023-03-23T23:25:28.989Z,6.32
2023-03-23T23:27:56.364Z,6.60
2023-03-23T23:30:23.204Z,6.40
2023-03-23T23:32:52.270Z,6.20
2023-03-23T23:35:20.288Z,6.43
2023-03-23T23:37:47.644Z,6.35
2023-03-23T23:40:15.374Z,6.10
2023-03-23T23:42:43.292Z,6.05
2023-03-23T23:45:13.236Z,6.25
2023-03-23T23:47:40.550Z,5.77
2023-03-23T23:50:08.621Z,5.30
2023-03-23T23:52:36.385Z,5.90
2023-03-23T23:55:04.288Z,6.20
2023-03-23T23:57:31.426Z,5.15
2023-03-23T23:59:58.278Z,5.97
